Clear Spring, Maryland
Current Conditions -  °F | °C
As of 4:53 AM on Saturday 25 Oct 2014 (Local Time) from KHGR Reporting Station
Clear Clear  
Wind Chill: 48°   Ceiling: Unl
Heat Index: 48°   Visibility: 10mi
Dew Point: 37°   Wind: 3mph
Humidity: 66%   Direction: 210°SSW
Pressure: 29.95"   Gusts: NA
Location:  39.66°N, 77.93°W
Report Text: KHGR 250853Z AUTO 21003KT 10SM CLR 09/03 A2995 RMK AO2 SLP152 T00890028 58003
Loading
Personal Weather Stations






























Interactive Weather Map
Tropical Storm Tracking
New forecast layout! Learn more

10-Day Weather Forecast

Advertisements
Track Severe Weather on mobile